sensor_id;sensor_type;location;lat;lon;timestamp;temperature;humidity
36652;DHT22;53334;51.976;20.144;2024-02-21T00:00:14;25.80;48.20
36652;DHT22;53334;51.976;20.144;2024-02-21T00:02:50;25.80;48.20
36652;DHT22;53334;51.976;20.144;2024-02-21T00:05:23;25.70;48.10
36652;DHT22;53334;51.976;20.144;2024-02-21T00:07:58;25.80;48.20
36652;DHT22;53334;51.976;20.144;2024-02-21T00:10:31;25.80;48.20
36652;DHT22;53334;51.976;20.144;2024-02-21T00:13:05;25.80;48.80
36652;DHT22;53334;51.976;20.144;2024-02-21T00:15:38;25.80;48.30
36652;DHT22;53334;51.976;20.144;2024-02-21T00:18:13;25.80;48.30
36652;DHT22;53334;51.976;20.144;2024-02-21T00:20:46;25.80;48.30
36652;DHT22;53334;51.976;20.144;2024-02-21T00:23:19;25.80;48.70
36652;DHT22;53334;51.976;20.144;2024-02-21T00:25:52;25.80;48.80
36652;DHT22;53334;51.976;20.144;2024-02-21T00:28:26;25.80;48.70
36652;DHT22;53334;51.976;20.144;2024-02-21T00:30:59;25.80;48.60
36652;DHT22;53334;51.976;20.144;2024-02-21T00:33:33;25.80;48.90
36652;DHT22;53334;51.976;20.144;2024-02-21T00:36:07;25.80;48.80
36652;DHT22;53334;51.976;20.144;2024-02-21T00:38:40;25.80;48.70
36652;DHT22;53334;51.976;20.144;2024-02-21T00:41:13;25.80;48.70
36652;DHT22;53334;51.976;20.144;2024-02-21T00:43:46;25.80;48.60
36652;DHT22;53334;51.976;20.144;2024-02-21T00:46:20;25.80;48.40
36652;DHT22;53334;51.976;20.144;2024-02-21T00:48:55;25.80;48.40
36652;DHT22;53334;51.976;20.144;2024-02-21T00:51:28;25.80;48.40
36652;DHT22;53334;51.976;20.144;2024-02-21T00:54:01;25.80;48.20
36652;DHT22;53334;51.976;20.144;2024-02-21T00:56:35;25.80;48.20
36652;DHT22;53334;51.976;20.144;2024-02-21T00:59:08;25.80;48.20
36652;DHT22;53334;51.976;20.144;2024-02-21T01:01:41;25.80;48.20
36652;DHT22;53334;51.976;20.144;2024-02-21T01:04:16;25.80;48.20
36652;DHT22;53334;51.976;20.144;2024-02-21T01:06:49;25.80;48.20
36652;DHT22;53334;51.976;20.144;2024-02-21T01:09:23;25.80;48.20
36652;DHT22;53334;51.976;20.144;2024-02-21T01:11:56;25.80;48.20
36652;DHT22;53334;51.976;20.144;2024-02-21T01:14:29;25.80;48.20
36652;DHT22;53334;51.976;20.144;2024-02-21T01:17:02;25.80;48.20
36652;DHT22;53334;51.976;20.144;2024-02-21T01:19:39;25.80;48.10
36652;DHT22;53334;51.976;20.144;2024-02-21T01:22:12;25.80;48.10
36652;DHT22;53334;51.976;20.144;2024-02-21T01:24:46;25.80;48.00
36652;DHT22;53334;51.976;20.144;2024-02-21T01:27:19;25.80;48.00
36652;DHT22;53334;51.976;20.144;2024-02-21T01:29:53;25.80;48.10
36652;DHT22;53334;51.976;20.144;2024-02-21T01:32:26;25.80;48.10
36652;DHT22;53334;51.976;20.144;2024-02-21T01:35:01;25.80;48.20
36652;DHT22;53334;51.976;20.144;2024-02-21T01:37:34;25.80;48.20
36652;DHT22;53334;51.976;20.144;2024-02-21T01:40:08;25.80;48.10
36652;DHT22;53334;51.976;20.144;2024-02-21T01:42:42;25.80;48.10
36652;DHT22;53334;51.976;20.144;2024-02-21T01:45:15;25.80;48.00
36652;DHT22;53334;51.976;20.144;2024-02-21T01:47:50;25.80;47.80
36652;DHT22;53334;51.976;20.144;2024-02-21T01:50:25;25.80;47.90
36652;DHT22;53334;51.976;20.144;2024-02-21T01:52:58;25.80;47.80
36652;DHT22;53334;51.976;20.144;2024-02-21T01:55:32;25.80;47.70
36652;DHT22;53334;51.976;20.144;2024-02-21T01:58:06;25.80;47.70
36652;DHT22;53334;51.976;20.144;2024-02-21T02:00:41;25.80;47.70
36652;DHT22;53334;51.976;20.144;2024-02-21T02:03:15;25.80;47.60
36652;DHT22;53334;51.976;20.144;2024-02-21T02:05:50;25.80;47.60
36652;DHT22;53334;51.976;20.144;2024-02-21T02:08:24;25.80;47.60
36652;DHT22;53334;51.976;20.144;2024-02-21T02:10:57;25.80;47.50
36652;DHT22;53334;51.976;20.144;2024-02-21T02:13:30;25.80;47.60
36652;DHT22;53334;51.976;20.144;2024-02-21T02:16:04;25.80;47.60
36652;DHT22;53334;51.976;20.144;2024-02-21T02:18:38;25.80;47.60
36652;DHT22;53334;51.976;20.144;2024-02-21T02:21:21;25.80;47.60
36652;DHT22;53334;51.976;20.144;2024-02-21T02:23:57;25.80;47.70
36652;DHT22;53334;51.976;20.144;2024-02-21T02:26:31;25.80;47.60
36652;DHT22;53334;51.976;20.144;2024-02-21T02:29:05;25.80;47.50
36652;DHT22;53334;51.976;20.144;2024-02-21T02:31:38;25.80;47.50
36652;DHT22;53334;51.976;20.144;2024-02-21T02:34:11;25.80;47.50
36652;DHT22;53334;51.976;20.144;2024-02-21T02:36:44;25.80;47.40
36652;DHT22;53334;51.976;20.144;2024-02-21T02:39:21;25.80;47.40
36652;DHT22;53334;51.976;20.144;2024-02-21T02:41:55;25.80;47.20
36652;DHT22;53334;51.976;20.144;2024-02-21T02:44:28;25.80;47.30
36652;DHT22;53334;51.976;20.144;2024-02-21T02:47:01;25.80;47.30
36652;DHT22;53334;51.976;20.144;2024-02-21T02:49:35;25.80;47.20
36652;DHT22;53334;51.976;20.144;2024-02-21T02:52:08;25.80;47.40
36652;DHT22;53334;51.976;20.144;2024-02-21T02:54:42;25.80;47.20
36652;DHT22;53334;51.976;20.144;2024-02-21T02:57:15;25.80;47.20
36652;DHT22;53334;51.976;20.144;2024-02-21T02:59:49;25.80;47.20
36652;DHT22;53334;51.976;20.144;2024-02-21T03:02:22;25.80;47.10
36652;DHT22;53334;51.976;20.144;2024-02-21T03:04:56;25.80;47.30
36652;DHT22;53334;51.976;20.144;2024-02-21T03:07:29;25.80;47.20
36652;DHT22;53334;51.976;20.144;2024-02-21T03:10:04;25.80;47.10
36652;DHT22;53334;51.976;20.144;2024-02-21T03:12:37;25.80;47.20
36652;DHT22;53334;51.976;20.144;2024-02-21T03:15:11;25.80;47.10
36652;DHT22;53334;51.976;20.144;2024-02-21T03:17:45;25.80;47.10
36652;DHT22;53334;51.976;20.144;2024-02-21T03:20:18;25.80;47.20
36652;DHT22;53334;51.976;20.144;2024-02-21T03:22:51;25.80;47.20
36652;DHT22;53334;51.976;20.144;2024-02-21T03:25:26;25.80;47.10
36652;DHT22;53334;51.976;20.144;2024-02-21T03:27:59;25.80;47.10
36652;DHT22;53334;51.976;20.144;2024-02-21T03:30:33;25.80;47.10
36652;DHT22;53334;51.976;20.144;2024-02-21T03:33:06;25.80;47.20
36652;DHT22;53334;51.976;20.144;2024-02-21T03:35:39;25.80;47.00
36652;DHT22;53334;51.976;20.144;2024-02-21T03:38:13;25.80;47.00
36652;DHT22;53334;51.976;20.144;2024-02-21T03:40:48;25.80;47.00
36652;DHT22;53334;51.976;20.144;2024-02-21T03:43:21;25.80;47.00
36652;DHT22;53334;51.976;20.144;2024-02-21T03:45:54;25.80;47.00
36652;DHT22;53334;51.976;20.144;2024-02-21T03:48:27;25.80;47.10
36652;DHT22;53334;51.976;20.144;2024-02-21T03:51:00;25.80;47.70
36652;DHT22;53334;51.976;20.144;2024-02-21T03:53:34;25.80;47.10
36652;DHT22;53334;51.976;20.144;2024-02-21T03:56:08;25.80;47.00
36652;DHT22;53334;51.976;20.144;2024-02-21T03:58:41;25.80;47.10
36652;DHT22;53334;51.976;20.144;2024-02-21T04:01:15;25.80;47.10
36652;DHT22;53334;51.976;20.144;2024-02-21T04:03:49;25.80;47.00
36652;DHT22;53334;51.976;20.144;2024-02-21T04:06:22;25.80;47.00
36652;DHT22;53334;51.976;20.144;2024-02-21T04:08:56;25.80;47.00
36652;DHT22;53334;51.976;20.144;2024-02-21T04:11:31;25.80;46.90
36652;DHT22;53334;51.976;20.144;2024-02-21T04:14:19;25.80;46.90
36652;DHT22;53334;51.976;20.144;2024-02-21T04:16:52;25.80;46.80
36652;DHT22;53334;51.976;20.144;2024-02-21T04:19:26;25.80;46.80
36652;DHT22;53334;51.976;20.144;2024-02-21T04:21:59;25.80;46.70
36652;DHT22;53334;51.976;20.144;2024-02-21T04:24:32;25.80;46.70
36652;DHT22;53334;51.976;20.144;2024-02-21T04:27:07;25.80;46.70
36652;DHT22;53334;51.976;20.144;2024-02-21T04:29:40;25.80;46.60
36652;DHT22;53334;51.976;20.144;2024-02-21T04:32:13;25.80;46.60
36652;DHT22;53334;51.976;20.144;2024-02-21T04:34:47;25.80;46.70
36652;DHT22;53334;51.976;20.144;2024-02-21T04:37:20;25.80;46.70
36652;DHT22;53334;51.976;20.144;2024-02-21T04:39:53;25.80;46.70
36652;DHT22;53334;51.976;20.144;2024-02-21T04:42:28;25.80;46.60
36652;DHT22;53334;51.976;20.144;2024-02-21T04:45:01;25.80;46.70
36652;DHT22;53334;51.976;20.144;2024-02-21T04:47:34;25.80;46.60
36652;DHT22;53334;51.976;20.144;2024-02-21T04:50:08;25.80;46.70
36652;DHT22;53334;51.976;20.144;2024-02-21T04:52:43;25.80;46.60
36652;DHT22;53334;51.976;20.144;2024-02-21T04:55:16;25.80;46.60
36652;DHT22;53334;51.976;20.144;2024-02-21T04:57:51;25.80;46.50
36652;DHT22;53334;51.976;20.144;2024-02-21T05:00:25;25.80;46.50
36652;DHT22;53334;51.976;20.144;2024-02-21T05:02:59;25.80;46.50
36652;DHT22;53334;51.976;20.144;2024-02-21T05:05:32;25.80;46.50
36652;DHT22;53334;51.976;20.144;2024-02-21T05:08:05;25.80;46.50
36652;DHT22;53334;51.976;20.144;2024-02-21T05:10:39;25.80;46.50
36652;DHT22;53334;51.976;20.144;2024-02-21T05:13:13;25.90;46.50
36652;DHT22;53334;51.976;20.144;2024-02-21T05:15:47;25.80;46.70
36652;DHT22;53334;51.976;20.144;2024-02-21T05:18:21;25.90;46.80
36652;DHT22;53334;51.976;20.144;2024-02-21T05:20:54;25.80;46.70
36652;DHT22;53334;51.976;20.144;2024-02-21T05:23:27;25.90;46.70
36652;DHT22;53334;51.976;20.144;2024-02-21T05:26:01;25.90;46.60
36652;DHT22;53334;51.976;20.144;2024-02-21T05:28:36;25.90;46.50
36652;DHT22;53334;51.976;20.144;2024-02-21T05:31:10;25.90;46.80
36652;DHT22;53334;51.976;20.144;2024-02-21T05:33:43;25.90;46.80
36652;DHT22;53334;51.976;20.144;2024-02-21T05:36:17;25.90;46.90
36652;DHT22;53334;51.976;20.144;2024-02-21T05:38:50;25.90;46.80
36652;DHT22;53334;51.976;20.144;2024-02-21T05:41:23;25.90;46.80
36652;DHT22;53334;51.976;20.144;2024-02-21T05:43:57;25.90;46.80
36652;DHT22;53334;51.976;20.144;2024-02-21T05:46:31;25.90;46.80
36652;DHT22;53334;51.976;20.144;2024-02-21T05:49:04;25.90;46.70
36652;DHT22;53334;51.976;20.144;2024-02-21T05:51:38;25.90;46.60
36652;DHT22;53334;51.976;20.144;2024-02-21T05:54:11;25.90;46.50
36652;DHT22;53334;51.976;20.144;2024-02-21T05:56:45;25.90;46.50
36652;DHT22;53334;51.976;20.144;2024-02-21T05:59:20;25.90;46.30
36652;DHT22;53334;51.976;20.144;2024-02-21T06:01:56;25.90;46.20
36652;DHT22;53334;51.976;20.144;2024-02-21T06:04:30;25.90;46.10
36652;DHT22;53334;51.976;20.144;2024-02-21T06:07:03;25.90;46.00
36652;DHT22;53334;51.976;20.144;2024-02-21T06:09:37;25.90;45.90
36652;DHT22;53334;51.976;20.144;2024-02-21T06:12:10;25.90;45.80
36652;DHT22;53334;51.976;20.144;2024-02-21T06:14:45;25.90;45.80
36652;DHT22;53334;51.976;20.144;2024-02-21T06:17:18;25.90;45.80
36652;DHT22;53334;51.976;20.144;2024-02-21T06:19:51;25.90;45.90
36652;DHT22;53334;51.976;20.144;2024-02-21T06:22:24;25.90;45.90
36652;DHT22;53334;51.976;20.144;2024-02-21T06:24:58;25.90;46.00
36652;DHT22;53334;51.976;20.144;2024-02-21T06:27:31;25.90;46.00
36652;DHT22;53334;51.976;20.144;2024-02-21T06:30:07;25.90;46.30
36652;DHT22;53334;51.976;20.144;2024-02-21T06:32:41;25.90;46.40
36652;DHT22;53334;51.976;20.144;2024-02-21T06:35:14;25.90;46.50
36652;DHT22;53334;51.976;20.144;2024-02-21T06:37:48;25.90;46.50
36652;DHT22;53334;51.976;20.144;2024-02-21T06:40:23;25.90;46.40
36652;DHT22;53334;51.976;20.144;2024-02-21T06:42:57;25.90;46.40
36652;DHT22;53334;51.976;20.144;2024-02-21T06:45:31;25.90;46.30
36652;DHT22;53334;51.976;20.144;2024-02-21T06:48:05;25.90;46.20
36652;DHT22;53334;51.976;20.144;2024-02-21T06:50:38;26.00;46.30
36652;DHT22;53334;51.976;20.144;2024-02-21T06:53:11;25.90;47.20
36652;DHT22;53334;51.976;20.144;2024-02-21T06:55:44;25.90;46.80
36652;DHT22;53334;51.976;20.144;2024-02-21T06:58:18;25.90;46.90
36652;DHT22;53334;51.976;20.144;2024-02-21T07:00:52;26.00;47.00
36652;DHT22;53334;51.976;20.144;2024-02-21T07:03:25;25.90;46.70
36652;DHT22;53334;51.976;20.144;2024-02-21T07:05:58;25.90;46.90
36652;DHT22;53334;51.976;20.144;2024-02-21T07:08:32;25.90;46.90
36652;DHT22;53334;51.976;20.144;2024-02-21T07:11:05;25.90;46.80
36652;DHT22;53334;51.976;20.144;2024-02-21T07:13:39;25.90;46.80
36652;DHT22;53334;51.976;20.144;2024-02-21T07:16:13;25.90;46.80
36652;DHT22;53334;51.976;20.144;2024-02-21T07:18:47;25.90;46.80
36652;DHT22;53334;51.976;20.144;2024-02-21T07:21:20;25.90;46.90
36652;DHT22;53334;51.976;20.144;2024-02-21T07:23:53;25.90;46.90
36652;DHT22;53334;51.976;20.144;2024-02-21T07:26:26;26.00;47.20
36652;DHT22;53334;51.976;20.144;2024-02-21T07:28:59;25.90;47.30
36652;DHT22;53334;51.976;20.144;2024-02-21T07:31:40;25.90;47.50
36652;DHT22;53334;51.976;20.144;2024-02-21T07:34:13;26.00;47.80
36652;DHT22;53334;51.976;20.144;2024-02-21T07:36:47;26.00;47.80
36652;DHT22;53334;51.976;20.144;2024-02-21T07:39:21;25.90;47.80
36652;DHT22;53334;51.976;20.144;2024-02-21T07:41:54;26.00;47.90
36652;DHT22;53334;51.976;20.144;2024-02-21T07:44:27;26.00;47.90
36652;DHT22;53334;51.976;20.144;2024-02-21T07:47:01;26.00;47.80
36652;DHT22;53334;51.976;20.144;2024-02-21T07:49:41;26.00;47.80
36652;DHT22;53334;51.976;20.144;2024-02-21T07:52:15;26.00;47.80
36652;DHT22;53334;51.976;20.144;2024-02-21T07:54:48;26.00;47.90
36652;DHT22;53334;51.976;20.144;2024-02-21T07:57:21;26.00;47.90
36652;DHT22;53334;51.976;20.144;2024-02-21T07:59:54;26.00;47.90
36652;DHT22;53334;51.976;20.144;2024-02-21T08:02:29;26.00;47.90
36652;DHT22;53334;51.976;20.144;2024-02-21T08:05:02;26.00;48.10
36652;DHT22;53334;51.976;20.144;2024-02-21T08:07:37;26.00;47.90
36652;DHT22;53334;51.976;20.144;2024-02-21T08:10:10;26.00;47.90
36652;DHT22;53334;51.976;20.144;2024-02-21T08:12:43;26.00;48.10
36652;DHT22;53334;51.976;20.144;2024-02-21T08:15:16;26.00;48.20
36652;DHT22;53334;51.976;20.144;2024-02-21T08:17:51;26.00;48.50
36652;DHT22;53334;51.976;20.144;2024-02-21T08:20:24;26.00;49.00
36652;DHT22;53334;51.976;20.144;2024-02-21T08:22:57;26.00;49.40
36652;DHT22;53334;51.976;20.144;2024-02-21T08:25:30;26.00;49.80
36652;DHT22;53334;51.976;20.144;2024-02-21T08:28:05;26.00;49.60
36652;DHT22;53334;51.976;20.144;2024-02-21T08:30:38;26.00;49.40
36652;DHT22;53334;51.976;20.144;2024-02-21T08:33:13;26.00;49.50
36652;DHT22;53334;51.976;20.144;2024-02-21T08:35:46;26.00;49.40
36652;DHT22;53334;51.976;20.144;2024-02-21T08:38:19;26.00;48.40
36652;DHT22;53334;51.976;20.144;2024-02-21T08:40:52;26.00;43.20
36652;DHT22;53334;51.976;20.144;2024-02-21T08:43:25;25.90;39.60
36652;DHT22;53334;51.976;20.144;2024-02-21T08:45:59;25.90;37.70
36652;DHT22;53334;51.976;20.144;2024-02-21T08:48:33;25.80;36.70
36652;DHT22;53334;51.976;20.144;2024-02-21T08:51:07;25.70;36.20
36652;DHT22;53334;51.976;20.144;2024-02-21T08:53:40;25.60;35.40
36652;DHT22;53334;51.976;20.144;2024-02-21T08:56:14;25.50;35.20
36652;DHT22;53334;51.976;20.144;2024-02-21T08:58:47;25.30;35.60
36652;DHT22;53334;51.976;20.144;2024-02-21T09:01:21;25.20;36.10
36652;DHT22;53334;51.976;20.144;2024-02-21T09:03:55;25.20;36.80
36652;DHT22;53334;51.976;20.144;2024-02-21T09:06:29;25.20;37.60
36652;DHT22;53334;51.976;20.144;2024-02-21T09:09:04;25.20;38.10
36652;DHT22;53334;51.976;20.144;2024-02-21T09:11:40;25.20;38.10
36652;DHT22;53334;51.976;20.144;2024-02-21T09:14:13;25.20;38.30
36652;DHT22;53334;51.976;20.144;2024-02-21T09:16:46;25.20;39.00
36652;DHT22;53334;51.976;20.144;2024-02-21T09:19:21;25.20;38.60
36652;DHT22;53334;51.976;20.144;2024-02-21T09:21:54;25.30;38.90
36652;DHT22;53334;51.976;20.144;2024-02-21T09:24:28;25.30;39.20
36652;DHT22;53334;51.976;20.144;2024-02-21T09:27:01;25.30;40.20
36652;DHT22;53334;51.976;20.144;2024-02-21T09:29:34;25.30;41.00
36652;DHT22;53334;51.976;20.144;2024-02-21T09:32:08;25.40;41.60
36652;DHT22;53334;51.976;20.144;2024-02-21T09:34:42;25.40;41.90
36652;DHT22;53334;51.976;20.144;2024-02-21T09:37:16;25.40;42.10
36652;DHT22;53334;51.976;20.144;2024-02-21T09:39:49;25.50;42.50
36652;DHT22;53334;51.976;20.144;2024-02-21T09:42:30;25.50;42.70
36652;DHT22;53334;51.976;20.144;2024-02-21T09:45:11;25.50;43.10
36652;DHT22;53334;51.976;20.144;2024-02-21T09:48:00;25.50;43.20
36652;DHT22;53334;51.976;20.144;2024-02-21T09:50:36;25.50;43.40
36652;DHT22;53334;51.976;20.144;2024-02-21T09:53:13;25.50;43.30
36652;DHT22;53334;51.976;20.144;2024-02-21T09:55:48;25.50;43.40
36652;DHT22;53334;51.976;20.144;2024-02-21T09:58:22;25.50;43.50
36652;DHT22;53334;51.976;20.144;2024-02-21T10:00:58;25.50;43.60
36652;DHT22;53334;51.976;20.144;2024-02-21T10:03:35;25.50;43.50
36652;DHT22;53334;51.976;20.144;2024-02-21T10:06:09;25.50;43.40
36652;DHT22;53334;51.976;20.144;2024-02-21T10:08:43;25.50;43.40
36652;DHT22;53334;51.976;20.144;2024-02-21T10:11:22;25.50;43.20
36652;DHT22;53334;51.976;20.144;2024-02-21T10:14:03;25.50;43.20
36652;DHT22;53334;51.976;20.144;2024-02-21T10:16:37;25.50;43.70
36652;DHT22;53334;51.976;20.144;2024-02-21T10:19:17;25.50;43.10
36652;DHT22;53334;51.976;20.144;2024-02-21T10:22:03;25.50;43.00
36652;DHT22;53334;51.976;20.144;2024-02-21T10:24:36;25.50;42.90
36652;DHT22;53334;51.976;20.144;2024-02-21T10:27:12;25.50;43.50
36652;DHT22;53334;51.976;20.144;2024-02-21T10:29:49;25.50;42.90
36652;DHT22;53334;51.976;20.144;2024-02-21T10:32:24;25.50;43.40
36652;DHT22;53334;51.976;20.144;2024-02-21T10:35:02;25.50;42.80
36652;DHT22;53334;51.976;20.144;2024-02-21T10:37:38;25.50;42.70
36652;DHT22;53334;51.976;20.144;2024-02-21T10:40:12;25.50;42.70
36652;DHT22;53334;51.976;20.144;2024-02-21T10:42:45;25.50;42.60
36652;DHT22;53334;51.976;20.144;2024-02-21T10:45:19;25.50;42.50
36652;DHT22;53334;51.976;20.144;2024-02-21T10:47:56;25.50;43.20
36652;DHT22;53334;51.976;20.144;2024-02-21T10:50:51;25.50;43.40
36652;DHT22;53334;51.976;20.144;2024-02-21T10:53:35;25.50;44.30
36652;DHT22;53334;51.976;20.144;2024-02-21T10:56:16;25.50;43.70
36652;DHT22;53334;51.976;20.144;2024-02-21T10:58:53;25.50;43.70
36652;DHT22;53334;51.976;20.144;2024-02-21T11:01:28;25.50;43.60
36652;DHT22;53334;51.976;20.144;2024-02-21T11:04:06;25.50;44.10
36652;DHT22;53334;51.976;20.144;2024-02-21T11:06:41;25.50;43.50
36652;DHT22;53334;51.976;20.144;2024-02-21T11:09:16;25.60;43.50
36652;DHT22;53334;51.976;20.144;2024-02-21T11:11:49;25.60;43.50
36652;DHT22;53334;51.976;20.144;2024-02-21T11:14:26;25.60;43.40
36652;DHT22;53334;51.976;20.144;2024-02-21T11:17:00;25.60;43.30
36652;DHT22;53334;51.976;20.144;2024-02-21T11:19:35;25.60;43.30
36652;DHT22;53334;51.976;20.144;2024-02-21T11:22:15;25.60;43.20
36652;DHT22;53334;51.976;20.144;2024-02-21T11:24:51;25.60;43.20
36652;DHT22;53334;51.976;20.144;2024-02-21T11:27:25;25.60;43.20
36652;DHT22;53334;51.976;20.144;2024-02-21T11:29:58;25.60;43.00
36652;DHT22;53334;51.976;20.144;2024-02-21T11:32:32;25.60;43.00
36652;DHT22;53334;51.976;20.144;2024-02-21T11:35:05;25.60;42.80
36652;DHT22;53334;51.976;20.144;2024-02-21T11:37:40;25.60;42.90
36652;DHT22;53334;51.976;20.144;2024-02-21T11:40:16;25.60;42.90
36652;DHT22;53334;51.976;20.144;2024-02-21T11:42:50;25.60;42.70
36652;DHT22;53334;51.976;20.144;2024-02-21T11:45:25;25.60;42.70
36652;DHT22;53334;51.976;20.144;2024-02-21T11:47:59;25.60;42.70
36652;DHT22;53334;51.976;20.144;2024-02-21T11:50:35;25.60;42.90
36652;DHT22;53334;51.976;20.144;2024-02-21T11:53:09;25.60;43.00
36652;DHT22;53334;51.976;20.144;2024-02-21T11:55:44;25.60;43.20
36652;DHT22;53334;51.976;20.144;2024-02-21T11:58:18;25.60;43.70
36652;DHT22;53334;51.976;20.144;2024-02-21T12:00:52;25.60;43.90
36652;DHT22;53334;51.976;20.144;2024-02-21T12:03:25;25.70;44.40
36652;DHT22;53334;51.976;20.144;2024-02-21T12:05:59;25.70;44.60
36652;DHT22;53334;51.976;20.144;2024-02-21T12:08:41;25.70;44.90
36652;DHT22;53334;51.976;20.144;2024-02-21T12:11:22;25.70;45.30
36652;DHT22;53334;51.976;20.144;2024-02-21T12:13:59;25.70;45.20
36652;DHT22;53334;51.976;20.144;2024-02-21T12:16:36;25.70;45.10
36652;DHT22;53334;51.976;20.144;2024-02-21T12:19:09;25.70;45.10
36652;DHT22;53334;51.976;20.144;2024-02-21T12:21:44;25.70;45.10
36652;DHT22;53334;51.976;20.144;2024-02-21T12:24:21;25.70;45.10
36652;DHT22;53334;51.976;20.144;2024-02-21T12:26:56;25.70;45.10
36652;DHT22;53334;51.976;20.144;2024-02-21T12:29:30;25.70;45.00
36652;DHT22;53334;51.976;20.144;2024-02-21T12:32:04;25.70;44.70
36652;DHT22;53334;51.976;20.144;2024-02-21T12:34:38;25.80;45.00
36652;DHT22;53334;51.976;20.144;2024-02-21T12:37:25;25.70;45.60
36652;DHT22;53334;51.976;20.144;2024-02-21T12:39:58;25.80;44.90
36652;DHT22;53334;51.976;20.144;2024-02-21T12:42:33;25.70;44.80
36652;DHT22;53334;51.976;20.144;2024-02-21T12:45:07;25.80;45.00
36652;DHT22;53334;51.976;20.144;2024-02-21T12:47:40;25.80;44.80
36652;DHT22;53334;51.976;20.144;2024-02-21T12:50:14;25.80;44.80
36652;DHT22;53334;51.976;20.144;2024-02-21T12:52:48;25.80;44.70
36652;DHT22;53334;51.976;20.144;2024-02-21T12:55:21;25.80;44.60
36652;DHT22;53334;51.976;20.144;2024-02-21T12:57:56;25.80;44.40
36652;DHT22;53334;51.976;20.144;2024-02-21T13:00:29;25.70;43.90
36652;DHT22;53334;51.976;20.144;2024-02-21T13:03:04;25.80;43.60
36652;DHT22;53334;51.976;20.144;2024-02-21T13:05:37;25.80;43.50
36652;DHT22;53334;51.976;20.144;2024-02-21T13:08:10;25.80;43.40
36652;DHT22;53334;51.976;20.144;2024-02-21T13:10:44;25.70;43.40
36652;DHT22;53334;51.976;20.144;2024-02-21T13:13:19;25.70;43.20
36652;DHT22;53334;51.976;20.144;2024-02-21T13:15:52;25.80;43.10
36652;DHT22;53334;51.976;20.144;2024-02-21T13:18:25;25.70;42.90
36652;DHT22;53334;51.976;20.144;2024-02-21T13:20:59;25.70;42.70
36652;DHT22;53334;51.976;20.144;2024-02-21T13:23:32;25.70;42.50
36652;DHT22;53334;51.976;20.144;2024-02-21T13:26:05;25.70;42.40
36652;DHT22;53334;51.976;20.144;2024-02-21T13:28:40;25.70;42.40
36652;DHT22;53334;51.976;20.144;2024-02-21T13:31:14;25.70;42.30
36652;DHT22;53334;51.976;20.144;2024-02-21T13:33:48;25.70;42.30
36652;DHT22;53334;51.976;20.144;2024-02-21T13:36:21;25.70;42.30
36652;DHT22;53334;51.976;20.144;2024-02-21T13:38:55;25.70;42.30
36652;DHT22;53334;51.976;20.144;2024-02-21T13:41:28;25.70;42.30
36652;DHT22;53334;51.976;20.144;2024-02-21T13:44:03;25.60;42.20
36652;DHT22;53334;51.976;20.144;2024-02-21T13:46:37;25.60;42.20
36652;DHT22;53334;51.976;20.144;2024-02-21T13:49:11;25.60;42.20
36652;DHT22;53334;51.976;20.144;2024-02-21T13:51:44;25.60;42.20
36652;DHT22;53334;51.976;20.144;2024-02-21T13:54:18;25.60;42.20
36652;DHT22;53334;51.976;20.144;2024-02-21T13:56:51;25.60;42.30
36652;DHT22;53334;51.976;20.144;2024-02-21T13:59:26;25.60;42.30
36652;DHT22;53334;51.976;20.144;2024-02-21T14:01:59;25.60;42.30
36652;DHT22;53334;51.976;20.144;2024-02-21T14:04:32;25.60;42.30
36652;DHT22;53334;51.976;20.144;2024-02-21T14:07:06;25.60;42.30
36652;DHT22;53334;51.976;20.144;2024-02-21T14:09:39;25.60;42.30
36652;DHT22;53334;51.976;20.144;2024-02-21T14:12:12;25.60;42.30
36652;DHT22;53334;51.976;20.144;2024-02-21T14:14:49;25.60;42.40
36652;DHT22;53334;51.976;20.144;2024-02-21T14:17:23;25.60;42.30
36652;DHT22;53334;51.976;20.144;2024-02-21T14:19:57;25.60;42.40
36652;DHT22;53334;51.976;20.144;2024-02-21T14:22:30;25.50;42.40
36652;DHT22;53334;51.976;20.144;2024-02-21T14:25:04;25.50;42.30
36652;DHT22;53334;51.976;20.144;2024-02-21T14:27:37;25.50;42.30
36652;DHT22;53334;51.976;20.144;2024-02-21T14:30:12;25.50;42.40
36652;DHT22;53334;51.976;20.144;2024-02-21T14:32:45;25.50;42.30
36652;DHT22;53334;51.976;20.144;2024-02-21T14:35:19;25.50;42.40
36652;DHT22;53334;51.976;20.144;2024-02-21T14:37:52;25.60;42.40
36652;DHT22;53334;51.976;20.144;2024-02-21T14:40:27;25.60;42.50
36652;DHT22;53334;51.976;20.144;2024-02-21T14:43:02;25.60;42.60
36652;DHT22;53334;51.976;20.144;2024-02-21T14:45:37;25.60;42.90
36652;DHT22;53334;51.976;20.144;2024-02-21T14:48:10;25.60;43.30
36652;DHT22;53334;51.976;20.144;2024-02-21T14:50:44;25.60;43.50
36652;DHT22;53334;51.976;20.144;2024-02-21T14:53:18;25.60;43.60
36652;DHT22;53334;51.976;20.144;2024-02-21T14:55:51;25.60;44.50
36652;DHT22;53334;51.976;20.144;2024-02-21T14:58:24;25.60;44.10
36652;DHT22;53334;51.976;20.144;2024-02-21T15:00:59;25.60;44.30
36652;DHT22;53334;51.976;20.144;2024-02-21T15:03:32;25.70;44.50
36652;DHT22;53334;51.976;20.144;2024-02-21T15:06:06;25.70;44.60
36652;DHT22;53334;51.976;20.144;2024-02-21T15:08:39;25.70;44.70
36652;DHT22;53334;51.976;20.144;2024-02-21T15:11:12;25.70;44.90
36652;DHT22;53334;51.976;20.144;2024-02-21T15:13:45;25.70;45.00
36652;DHT22;53334;51.976;20.144;2024-02-21T15:16:21;25.70;45.10
36652;DHT22;53334;51.976;20.144;2024-02-21T15:18:54;25.70;45.30
36652;DHT22;53334;51.976;20.144;2024-02-21T15:21:28;25.70;45.30
36652;DHT22;53334;51.976;20.144;2024-02-21T15:24:02;25.70;45.30
36652;DHT22;53334;51.976;20.144;2024-02-21T15:26:36;25.80;45.40
36652;DHT22;53334;51.976;20.144;2024-02-21T15:29:09;25.80;45.40
36652;DHT22;53334;51.976;20.144;2024-02-21T15:31:44;25.70;45.40
36652;DHT22;53334;51.976;20.144;2024-02-21T15:34:19;25.80;45.50
36652;DHT22;53334;51.976;20.144;2024-02-21T15:36:52;25.80;45.60
36652;DHT22;53334;51.976;20.144;2024-02-21T15:39:25;25.80;45.60
36652;DHT22;53334;51.976;20.144;2024-02-21T15:41:59;25.80;45.60
36652;DHT22;53334;51.976;20.144;2024-02-21T15:44:32;25.80;45.70
36652;DHT22;53334;51.976;20.144;2024-02-21T15:47:07;25.80;45.60
36652;DHT22;53334;51.976;20.144;2024-02-21T15:49:40;25.80;45.80
36652;DHT22;53334;51.976;20.144;2024-02-21T15:52:13;25.80;46.30
36652;DHT22;53334;51.976;20.144;2024-02-21T15:54:47;25.80;46.40
36652;DHT22;53334;51.976;20.144;2024-02-21T15:57:20;25.80;46.50